Huntingdon, Pennsylvania
Current Conditions -  °F | °C
As of 4:28 AM on Friday 24 Oct 2014 (Local Time) from KAOO Reporting Station
Broken Clouds Broken Clouds  
Wind Chill: 49°   Ceiling: 2000
Heat Index: 49°   Visibility: 10mi
Dew Point: 43°   Wind: 3mph
Humidity: 80%   Direction: NA
Pressure: 30"   Gusts: NA
Location:  40.48°N, 78.01°W
Report Text: KAOO 240828Z AUTO VRB03KT 10SM BKN020 09/06 A3000 RMK AO2 T00940061
Loading
Personal Weather Stations






























Interactive Weather Map
Tropical Storm Tracking
New forecast layout! Learn more

10-Day Weather Forecast

Advertisements
Track Severe Weather on mobile